A80 TRACON Summary / KATL TAF
ATL TRACON Summary:
Expect SCT/BKN005-016 clouds in the TRACON to improve to SCT020-050 by 14-15z. Surface winds will be west to northwest at 8-12kts with 20-25kt gusts by 15-16z. Expect 40-60kt compression winds between downwind and final approach in West operations. Flight Hazards in the TRACON airspace outside convection: LGT-MOD turbulence below 080.

Updated:4/26/2015 6:20 AM
ATL Terminal Aerodrome Forecast:

FTUS80 KATL 261400 AAA
KATL 261357Z 2614/2718 24010KT P6SM BKN012 BKN020
     FM261600 29012G25KT P6SM SCT035
     FM270000 32012KT P6SM SCT080
     FM270700 35005KT P6SM FEW200
     FM271400 35005KT P6SM SCT040
ATL TRACON Area Remark:
NONE.
Convective Gate Forecast / Icing Gate Forecast / Vertical Wind Profile (click on image to enlarge)
Convective Gate Forecast
Icing Gate Forecast
table with gate forecasts (convective and CCFP) used April - November while icing gate forecasts are issued
AIRMETs & SIGMETS/ Southeast Radar loop / Satellite Image (click on image to enlarge)

Southeast Radar Loop

 



USA.gov is the U.S. government's official web portal to all federal, state and local government web resources and services.